Time;durP1;ratioP1;P1;durP2;ratioP2;P2;SDS_P1;SDS_P2;PMS_P1;PMS_P2;Temp;Humidity;BMP_temperature;BMP_pressure;BME280_temperature;BME280_humidity;BME280_pressure;Samples;Min_cycle;Max_cycle;Signal;HPM_P1;HPM_P2
2022/05/04 00:02:17;;;;;;;7.90;3.97;;;;;;;8.75;78.27;101917.19;5092060;28;20044;-61
2022/05/04 00:04:43;;;;;;;8.00;4.28;;;;;;;8.68;78.49;101913.38;5092545;28;20024;-61
2022/05/04 00:07:08;;;;;;;6.38;4.18;;;;;;;8.68;79.07;101920.22;5092246;28;20075;-60
2022/05/04 00:09:33;;;;;;;9.73;4.20;;;;;;;8.62;78.77;101916.50;5091874;28;20035;-61
2022/05/04 00:11:58;;;;;;;7.72;4.32;;;;;;;8.62;80.08;101915.59;5092214;28;20064;-61
2022/05/04 00:14:25;;;;;;;12.38;4.15;;;;;;;8.61;79.98;101913.84;5092395;28;20530;-61
2022/05/04 00:16:51;;;;;;;9.55;5.22;;;;;;;8.58;80.56;101924.88;5092488;28;20479;-61
2022/05/04 00:19:17;;;;;;;10.93;5.07;;;;;;;8.56;80.97;101925.59;5091904;28;20480;-59
2022/05/04 00:21:42;;;;;;;9.02;5.15;;;;;;;8.50;80.87;101921.81;5091797;28;20066;-61
2022/05/04 00:24:07;;;;;;;12.38;6.70;;;;;;;8.40;81.02;101925.56;5091503;28;20026;-61
2022/05/04 00:26:33;;;;;;;8.50;5.15;;;;;;;8.35;81.49;101924.41;5091836;28;20107;-61
2022/05/04 00:28:58;;;;;;;9.50;5.25;;;;;;;8.31;82.34;101925.00;5091851;28;20035;-61
2022/05/04 00:31:23;;;;;;;8.57;5.45;;;;;;;8.25;82.03;101924.66;5090506;28;20050;-61
2022/05/04 00:33:49;;;;;;;8.75;5.18;;;;;;;8.21;82.93;101914.94;5091516;28;20032;-61
2022/05/04 00:36:14;;;;;;;9.90;5.60;;;;;;;8.21;82.99;101912.34;5092146;28;20056;-61
2022/05/04 00:38:39;;;;;;;9.52;5.15;;;;;;;8.20;83.12;101915.75;5091602;28;20038;-61
2022/05/04 00:41:04;;;;;;;9.00;4.97;;;;;;;8.20;83.39;101923.50;5090142;28;20460;-61
2022/05/04 00:43:30;;;;;;;10.30;6.03;;;;;;;8.22;83.07;101927.06;5091809;28;20028;-61
2022/05/04 00:45:55;;;;;;;9.07;5.60;;;;;;;8.23;83.60;101918.50;5091762;28;20016;-61
2022/05/04 00:48:20;;;;;;;10.90;5.50;;;;;;;8.25;84.72;101914.34;5090704;28;20032;-59
2022/05/04 00:50:48;;;;;;;9.10;5.43;;;;;;;8.25;83.16;101910.06;5091796;28;20032;-61
2022/05/04 00:53:14;;;;;;;11.35;5.63;;;;;;;8.26;83.93;101908.34;5091296;28;20035;-59
2022/05/04 00:55:39;;;;;;;6.90;5.13;;;;;;;8.29;83.10;101911.13;5091474;28;20407;-61
2022/05/04 01:00:53;;;;;;;14.98;5.60;;;;;;;8.31;83.42;101909.50;5092003;28;20439;-60
2022/05/04 01:03:18;;;;;;;10.88;5.90;;;;;;;8.31;82.66;101904.34;5090055;28;20028;-61
2022/05/04 01:05:44;;;;;;;10.07;5.55;;;;;;;8.36;83.29;101907.22;5090633;28;20077;-61
2022/05/04 01:08:09;;;;;;;9.65;5.93;;;;;;;8.37;82.93;101912.47;5090973;28;20031;-61
2022/05/04 01:10:35;;;;;;;9.15;5.32;;;;;;;8.39;82.47;101908.28;5091399;28;20498;-61
2022/05/04 01:13:00;;;;;;;8.57;5.50;;;;;;;8.43;83.55;101913.63;5091020;28;20032;-61
2022/05/04 01:15:25;;;;;;;10.63;5.95;;;;;;;8.45;82.59;101907.75;5091003;28;20090;-60
2022/05/04 01:17:51;;;;;;;8.40;5.38;;;;;;;8.48;83.14;101912.19;5091091;28;20515;-61
2022/05/04 01:20:17;;;;;;;10.90;4.72;;;;;;;8.48;81.37;101907.94;5091342;28;20020;-60
2022/05/04 01:22:43;;;;;;;7.95;4.75;;;;;;;8.51;82.43;101914.94;5090985;28;20028;-61
2022/05/04 01:25:09;;;;;;;10.57;5.53;;;;;;;8.50;82.01;101911.50;5090459;28;20364;-61
2022/05/04 01:27:35;;;;;;;11.65;5.15;;;;;;;8.49;81.90;101914.00;5090952;28;20049;-60
2022/05/04 01:30:00;;;;;;;11.55;5.47;;;;;;;8.53;82.23;101908.19;5090562;28;20024;-61
2022/05/04 01:32:26;;;;;;;11.15;5.05;;;;;;;8.56;82.06;101915.25;5090437;28;20494;-61
2022/05/04 01:34:51;;;;;;;8.77;4.43;;;;;;;8.57;82.28;101912.75;5090550;28;20380;-61
2022/05/04 01:37:17;;;;;;;10.65;4.53;;;;;;;8.58;82.09;101904.19;5090932;28;20216;-61
2022/05/04 01:39:42;;;;;;;9.50;4.80;;;;;;;8.58;82.12;101904.19;5090337;28;20078;-61
2022/05/04 01:42:15;;;;;;;7.65;4.38;;;;;;;8.60;81.10;101912.94;5090306;28;20039;-58
2022/05/04 01:44:42;;;;;;;8.52;3.88;;;;;;;8.61;81.80;101909.56;5090729;28;20028;-61
2022/05/04 01:47:08;;;;;;;12.43;4.35;;;;;;;8.63;81.51;101901.91;5090456;28;20090;-59
2022/05/04 01:49:34;;;;;;;7.38;4.30;;;;;;;8.61;81.09;101909.56;5090369;28;20052;-61
2022/05/04 01:51:59;;;;;;;7.00;4.13;;;;;;;8.62;81.44;101905.25;5089809;28;20063;-60
2022/05/04 01:54:26;;;;;;;9.77;4.80;;;;;;;8.62;80.52;101906.16;5089817;28;20031;-61
2022/05/04 01:56:51;;;;;;;7.45;4.30;;;;;;;8.63;81.19;101907.94;5089751;28;20028;-61
2022/05/04 01:59:16;;;;;;;8.85;4.18;;;;;;;8.65;80.71;101905.47;5086002;28;20055;-61
2022/05/04 02:01:42;;;;;;;9.40;4.00;;;;;;;8.64;80.23;101904.56;5090093;28;20055;-60
2022/05/04 02:04:08;;;;;;;8.90;4.97;;;;;;;8.64;80.52;101899.41;5090133;28;20069;-61
2022/05/04 02:06:35;;;;;;;9.73;4.55;;;;;;;8.64;79.64;101898.50;5090439;28;20074;-60
2022/05/04 02:09:00;;;;;;;8.35;4.18;;;;;;;8.63;79.70;101895.00;5090332;28;20089;-61
2022/05/04 02:11:26;;;;;;;8.15;4.57;;;;;;;8.65;79.98;101905.47;5089404;28;20539;-61
2022/05/04 02:13:51;;;;;;;13.40;4.18;;;;;;;8.64;80.11;101904.56;5089983;28;20032;-61
2022/05/04 02:16:17;;;;;;;10.93;4.43;;;;;;;8.63;79.78;101897.59;5089710;28;20047;-61
2022/05/04 02:18:43;;;;;;;8.23;4.63;;;;;;;8.60;80.02;101897.44;5089807;28;20027;-61
2022/05/04 02:21:09;;;;;;;9.77;4.72;;;;;;;8.60;79.97;101902.59;5088849;28;20047;-60
2022/05/04 02:23:35;;;;;;;9.63;4.68;;;;;;;8.61;80.13;101901.81;5089874;28;20012;-61
2022/05/04 02:26:00;;;;;;;10.70;4.82;;;;;;;8.61;79.93;101893.16;5089613;28;20031;-61
2022/05/04 02:28:25;;;;;;;12.23;4.60;;;;;;;8.60;79.52;101894.84;5089389;28;20142;-60
2022/05/04 02:30:51;;;;;;;8.13;4.25;;;;;;;8.61;80.66;101888.91;5089295;28;20024;-61
2022/05/04 02:33:16;;;;;;;10.38;4.57;;;;;;;8.59;79.98;101884.44;5089431;28;20040;-61
2022/05/04 02:38:25;;;;;;;5.25;4.15;;;;;;;8.60;79.61;101897.44;5089549;28;20046;-61
2022/05/04 02:40:51;;;;;;;9.32;4.55;;;;;;;8.60;79.60;101886.22;5089020;28;20032;-60
2022/05/04 02:43:16;;;;;;;12.95;4.72;;;;;;;8.60;79.86;101892.25;5089475;28;20012;-60
2022/05/04 02:45:41;;;;;;;10.32;3.88;;;;;;;8.60;79.85;101896.56;5088795;28;20022;-61
2022/05/04 02:48:07;;;;;;;11.38;4.57;;;;;;;8.61;80.02;101893.16;5088973;28;20639;-61
2022/05/04 02:50:34;;;;;;;11.90;4.90;;;;;;;8.60;80.11;101888.81;5089387;28;20110;-61
2022/05/04 02:52:59;;;;;;;14.65;4.75;;;;;;;8.58;79.09;101880.94;5089617;28;20090;-61
2022/05/04 02:55:24;;;;;;;12.00;4.70;;;;;;;8.56;79.97;101880.00;5088708;28;20334;-61
2022/05/04 02:57:50;;;;;;;10.85;4.45;;;;;;;8.50;79.77;101877.00;5089354;28;20106;-61
2022/05/04 03:00:16;;;;;;;7.63;4.20;;;;;;;8.48;80.03;101883.78;5088577;28;20024;-61
2022/05/04 03:02:41;;;;;;;8.68;4.50;;;;;;;8.49;79.26;101875.25;5089089;28;20459;-61
2022/05/04 03:05:08;;;;;;;12.48;4.25;;;;;;;8.48;78.46;101878.59;5089429;28;20024;-61
2022/05/04 03:07:34;;;;;;;10.05;4.70;;;;;;;8.48;80.07;101876.91;5088838;28;20445;-61
2022/05/04 03:09:59;;;;;;;8.77;4.45;;;;;;;8.45;79.46;101878.44;5088792;28;20032;-61
2022/05/04 03:12:25;;;;;;;8.15;4.32;;;;;;;8.42;80.38;101879.13;5088853;28;20388;-61
2022/05/04 03:14:51;;;;;;;11.32;3.85;;;;;;;8.39;79.92;101877.28;5088395;28;20028;-60
2022/05/04 03:17:17;;;;;;;8.45;4.68;;;;;;;8.34;80.14;101875.22;5088827;28;20544;-61
2022/05/04 03:19:43;;;;;;;11.82;4.57;;;;;;;8.33;80.59;101871.75;5088235;28;20035;-61
2022/05/04 03:22:09;;;;;;;12.43;4.43;;;;;;;8.36;80.75;101871.97;5087909;28;20028;-60
2022/05/04 03:24:35;;;;;;;11.45;4.50;;;;;;;8.37;80.12;101867.66;5089006;28;20457;-61
2022/05/04 03:27:00;;;;;;;12.38;5.30;;;;;;;8.37;80.34;101873.72;5087631;28;20024;-61
2022/05/04 03:29:26;;;;;;;16.58;4.68;;;;;;;8.36;80.38;101871.97;5088844;28;20205;-61
2022/05/04 03:31:51;;;;;;;12.38;4.70;;;;;;;8.35;79.59;101870.16;5088203;28;20087;-61
2022/05/04 03:34:18;;;;;;;8.73;4.50;;;;;;;8.34;80.53;101867.50;5088203;28;20081;-61
2022/05/04 03:36:43;;;;;;;8.48;4.70;;;;;;;8.29;80.38;101864.66;5088741;28;20036;-60
2022/05/04 03:39:09;;;;;;;13.45;4.90;;;;;;;8.25;80.76;101865.25;5088653;28;20259;-61
2022/05/04 03:41:35;;;;;;;10.70;4.75;;;;;;;8.23;81.46;101865.19;5088493;28;20434;-61
2022/05/04 03:44:01;;;;;;;8.02;4.60;;;;;;;8.20;81.03;101864.13;5088969;28;20024;-60
2022/05/04 03:46:28;;;;;;;10.45;4.72;;;;;;;8.17;80.85;101864.81;5089122;28;20024;-59
2022/05/04 03:48:58;;;;;;;8.27;4.43;;;;;;;8.13;81.39;101863.75;5089011;28;20039;-60
2022/05/04 03:51:24;;;;;;;11.50;5.20;;;;;;;8.11;82.43;101865.34;5088819;28;20036;-59
2022/05/04 03:53:51;;;;;;;8.80;5.32;;;;;;;8.10;81.55;101871.31;5087641;28;20067;-61
2022/05/04 03:56:17;;;;;;;10.48;5.10;;;;;;;8.09;81.67;101872.13;5087776;28;20036;-61
2022/05/04 03:58:43;;;;;;;8.85;5.30;;;;;;;8.10;82.27;101867.81;5087833;28;20032;-59
2022/05/04 04:01:09;;;;;;;9.82;5.20;;;;;;;8.10;82.16;101868.72;5087117;28;20114;-61
2022/05/04 04:03:35;;;;;;;11.02;5.03;;;;;;;8.11;82.21;101869.63;5086788;28;20016;-61
2022/05/04 04:06:01;;;;;;;7.13;4.55;;;;;;;8.12;81.82;101866.22;5079729;28;20471;-61
2022/05/04 04:08:27;;;;;;;9.23;4.78;;;;;;;8.14;82.63;101865.53;5087176;28;20031;-61
2022/05/04 04:10:52;;;;;;;8.55;4.70;;;;;;;8.16;82.26;101863.94;5086348;28;20074;-60
2022/05/04 04:13:18;;;;;;;9.23;5.10;;;;;;;8.19;82.23;101868.38;5088134;28;20020;-61
2022/05/04 04:15:43;;;;;;;12.13;5.20;;;;;;;8.20;82.00;101869.28;5088968;28;20455;-61
2022/05/04 04:18:09;;;;;;;13.30;5.68;;;;;;;8.17;82.44;101869.97;5088802;28;20521;-60
2022/05/04 04:23:18;;;;;;;12.52;5.15;;;;;;;8.15;83.39;101867.31;5088699;28;20490;-61
2022/05/04 04:25:44;;;;;;;12.15;5.15;;;;;;;8.11;82.19;101869.63;5088726;28;20032;-60
2022/05/04 04:28:09;;;;;;;10.10;4.82;;;;;;;8.06;83.26;101869.34;5088996;28;20032;-60
2022/05/04 04:30:36;;;;;;;12.40;5.72;;;;;;;8.03;83.44;101872.66;5088555;28;20020;-60
2022/05/04 04:33:02;;;;;;;12.15;5.63;;;;;;;8.01;83.16;101870.75;5087791;28;20048;-61
2022/05/04 04:35:27;;;;;;;9.32;5.13;;;;;;;8.00;81.67;101869.91;5088457;28;20506;-61
2022/05/04 04:37:52;;;;;;;11.25;5.55;;;;;;;7.99;82.60;101870.69;5090902;28;20032;-59
2022/05/04 04:40:17;;;;;;;11.48;5.03;;;;;;;7.97;82.70;101879.16;5092268;28;20059;-61
2022/05/04 04:42:43;;;;;;;10.40;4.93;;;;;;;7.95;82.86;101875.56;5092330;28;20043;-60
2022/05/04 04:45:08;;;;;;;10.52;4.80;;;;;;;7.93;83.63;101886.69;5091703;28;20422;-61
2022/05/04 04:47:34;;;;;;;11.40;5.88;;;;;;;7.91;83.45;101883.16;5091753;28;20024;-61
2022/05/04 04:49:59;;;;;;;11.90;5.65;;;;;;;7.92;83.43;101889.19;5092194;28;20036;-61
2022/05/04 04:52:24;;;;;;;8.05;5.80;;;;;;;7.92;83.63;101878.84;5091374;28;20036;-61
2022/05/04 04:54:50;;;;;;;10.73;5.18;;;;;;;7.91;83.67;101882.25;5092251;28;20036;-60
2022/05/04 04:57:15;;;;;;;9.73;6.03;;;;;;;7.89;83.76;101884.75;5091003;28;20475;-58
2022/05/04 04:59:41;;;;;;;11.15;6.13;;;;;;;7.88;84.30;101877.78;5091489;28;20028;-61
2022/05/04 05:02:06;;;;;;;9.18;5.20;;;;;;;7.89;82.95;101882.16;5088739;28;20040;-59
2022/05/04 05:04:31;;;;;;;11.57;5.80;;;;;;;7.90;83.54;101875.28;5092066;28;20456;-61
2022/05/04 05:06:56;;;;;;;12.23;5.97;;;;;;;7.91;83.37;101877.09;5091801;28;20032;-60
2022/05/04 05:09:22;;;;;;;18.90;5.63;;;;;;;7.90;83.03;101880.44;5091793;28;20031;-61
2022/05/04 05:11:47;;;;;;;11.63;5.55;;;;;;;7.88;82.39;101880.34;5091954;28;20055;-60
2022/05/04 05:16:56;;;;;;;15.52;5.78;;;;;;;7.89;82.70;101883.84;5087213;28;20399;-61
2022/05/04 05:19:22;;;;;;;11.75;5.80;;;;;;;7.87;83.31;101883.75;5091681;28;20024;-60
2022/05/04 05:21:47;;;;;;;12.88;6.00;;;;;;;7.87;83.17;101886.34;5086167;28;20059;-61
2022/05/04 05:24:12;;;;;;;11.55;5.45;;;;;;;7.91;84.31;101887.41;5091476;28;20032;-59
2022/05/04 05:26:38;;;;;;;11.50;6.03;;;;;;;7.95;84.10;101883.31;5091467;28;20438;-59
2022/05/04 05:29:03;;;;;;;10.30;6.15;;;;;;;7.99;83.59;101893.91;5090884;28;20062;-59
2022/05/04 05:31:28;;;;;;;12.00;5.90;;;;;;;8.05;82.78;101883.06;5085490;28;20054;-61
2022/05/04 05:33:54;;;;;;;13.60;6.72;;;;;;;8.12;82.50;101882.63;5090445;28;20109;-61
2022/05/04 05:36:19;;;;;;;13.38;5.90;;;;;;;8.20;82.51;101887.34;5087202;28;20444;-59
2022/05/04 05:38:45;;;;;;;13.32;5.82;;;;;;;8.22;81.89;101880.59;5090521;28;20024;-61
2022/05/04 05:41:10;;;;;;;9.73;5.50;;;;;;;8.28;81.06;101880.94;5090191;28;20032;-60
2022/05/04 05:43:35;;;;;;;10.65;5.40;;;;;;;8.34;81.36;101877.81;5089897;28;20102;-60
2022/05/04 05:46:01;;;;;;;11.30;5.55;;;;;;;8.41;80.25;101883.44;5089092;28;20459;-60
2022/05/04 05:48:26;;;;;;;14.32;6.32;;;;;;;8.48;81.01;101891.53;5089242;28;20031;-60
2022/05/04 05:50:51;;;;;;;11.65;5.63;;;;;;;8.62;80.83;101880.31;5090353;28;20028;-61
2022/05/04 05:53:17;;;;;;;15.30;5.57;;;;;;;8.72;80.11;101886.03;5090546;28;20043;-59
2022/05/04 05:55:42;;;;;;;9.98;5.38;;;;;;;8.85;79.36;101892.78;5090541;28;20028;-60
2022/05/04 05:58:09;;;;;;;15.20;5.65;;;;;;;8.94;79.14;101889.81;5090693;28;20028;-61
2022/05/04 06:00:35;;;;;;;12.95;5.63;;;;;;;9.05;78.58;101891.28;5088547;28;20330;-61
2022/05/04 06:03:01;;;;;;;10.23;4.93;;;;;;;9.20;78.73;101891.25;5091002;28;20534;-60
2022/05/04 06:05:26;;;;;;;9.20;5.20;;;;;;;9.29;77.17;101885.69;5090869;28;20372;-61
2022/05/04 06:07:51;;;;;;;7.65;5.22;;;;;;;9.42;76.80;101888.91;5090998;28;20032;-61
2022/05/04 06:10:17;;;;;;;14.38;5.43;;;;;;;9.53;76.05;101892.09;5090117;28;20074;-61
2022/05/04 06:12:44;;;;;;;10.73;5.32;;;;;;;9.65;75.56;101891.84;5083005;28;20102;-61
2022/05/04 06:15:10;;;;;;;10.23;4.85;;;;;;;9.74;75.54;101892.31;5088516;28;20515;-59
2022/05/04 06:17:36;;;;;;;13.18;4.93;;;;;;;9.91;75.47;101888.00;5090226;28;20460;-60
2022/05/04 06:20:04;;;;;;;9.88;4.85;;;;;;;10.09;74.23;101903.59;5089703;28;20036;-60
2022/05/04 06:22:29;;;;;;;9.52;5.22;;;;;;;10.22;72.47;101909.41;5088997;28;20050;-59
2022/05/04 06:24:55;;;;;;;8.82;5.10;;;;;;;10.28;71.36;101908.84;5088467;28;20024;-60
2022/05/04 06:27:20;;;;;;;12.55;4.88;;;;;;;10.28;70.96;101907.16;5087540;28;20448;-59
2022/05/04 06:35:13;;;;;;;11.55;4.95;;;;;;;10.67;70.17;101914.25;5089379;28;20084;-59
2022/05/04 06:37:39;;;;;;;7.47;4.63;;;;;;;10.84;70.29;101906.41;5108047;28;20031;-60
2022/05/04 06:40:05;;;;;;;10.35;5.00;;;;;;;11.00;68.28;101909.72;5107207;28;20024;-60
2022/05/04 06:42:30;;;;;;;16.17;5.28;;;;;;;10.96;67.48;101913.88;5106959;28;20035;-60
2022/05/04 06:44:56;;;;;;;11.38;5.38;;;;;;;11.00;68.15;101910.63;5106645;28;20027;-59
2022/05/04 06:47:21;;;;;;;9.77;5.35;;;;;;;11.08;67.20;101907.50;5106537;28;20114;-60
2022/05/04 06:49:46;;;;;;;15.50;5.55;;;;;;;11.16;68.34;101916.53;5108379;28;20524;-60
2022/05/04 06:52:12;;;;;;;7.93;5.15;;;;;;;11.25;68.14;101910.88;5108366;28;20058;-60
2022/05/04 06:54:37;;;;;;;12.88;4.97;;;;;;;11.32;68.18;101922.41;5108461;28;20030;-60
2022/05/04 06:57:03;;;;;;;6.28;4.80;;;;;;;11.34;66.95;101916.50;5108694;28;20024;-59
2022/05/04 06:59:28;;;;;;;8.25;4.60;;;;;;;11.36;66.48;101916.56;5108946;28;20099;-60
2022/05/04 07:01:54;;;;;;;9.88;4.97;;;;;;;11.40;66.39;101913.31;5107322;27;20061;-60
2022/05/04 07:04:20;;;;;;;8.45;4.20;;;;;;;11.48;67.08;101917.13;5108927;28;20364;-60
2022/05/04 07:06:46;;;;;;;9.85;4.93;;;;;;;11.61;66.95;101912.47;5108737;28;20030;-60
2022/05/04 07:09:11;;;;;;;9.00;4.63;;;;;;;11.71;66.13;101909.47;5108280;28;20451;-60
2022/05/04 07:11:37;;;;;;;11.57;5.45;;;;;;;11.70;65.17;101906.81;5102429;28;20531;-58
2022/05/04 07:14:02;;;;;;;10.57;5.05;;;;;;;11.75;65.21;101902.69;5070613;28;20024;-60
2022/05/04 07:16:27;;;;;;;13.68;5.57;;;;;;;11.92;65.15;101906.06;5070896;28;20055;-61
2022/05/04 07:18:52;;;;;;;11.13;4.93;;;;;;;12.22;64.91;101897.84;5071215;28;20035;-60
2022/05/04 07:21:18;;;;;;;9.43;5.40;;;;;;;12.46;62.93;101910.09;5072743;28;20051;-60
2022/05/04 07:23:43;;;;;;;8.88;4.43;;;;;;;12.48;60.73;101900.59;5073737;28;20060;-60
2022/05/04 07:26:08;;;;;;;11.85;4.75;;;;;;;12.76;60.26;101899.97;5073753;28;20384;-61
2022/05/04 07:28:34;;;;;;;10.35;4.80;;;;;;;12.95;59.16;101905.06;5072984;28;20442;-60
2022/05/04 07:30:59;;;;;;;13.98;4.80;;;;;;;13.07;58.19;101902.06;5071156;28;20040;-59
2022/05/04 07:33:24;;;;;;;7.35;4.70;;;;;;;13.18;59.28;101902.47;5072988;28;20044;-60
2022/05/04 07:35:50;;;;;;;10.05;4.70;;;;;;;13.45;58.35;101893.91;5075562;28;20430;-60
2022/05/04 07:38:15;;;;;;;8.48;4.30;;;;;;;13.71;58.48;101895.72;5069320;28;20597;-60
2022/05/04 07:43:25;;;;;;;11.75;5.82;;;;;;;14.09;57.34;101895.31;5071440;28;20064;-59
2022/05/04 07:45:50;;;;;;;11.98;5.70;;;;;;;14.41;55.08;101900.72;5071354;28;20040;-60
2022/05/04 07:48:15;;;;;;;7.05;4.60;;;;;;;14.35;53.70;101902.25;5073234;28;20024;-60
2022/05/04 07:50:41;;;;;;;10.75;5.20;;;;;;;14.62;55.32;101899.66;5074173;28;20035;-59
2022/05/04 07:53:06;;;;;;;9.57;5.38;;;;;;;14.92;55.22;101907.53;5074978;28;20483;-60
2022/05/04 07:55:31;;;;;;;8.68;4.95;;;;;;;15.28;54.38;101908.59;5073963;28;20479;-59
2022/05/04 07:57:57;;;;;;;10.05;5.57;;;;;;;15.55;52.84;101899.78;5075555;28;20068;-60
2022/05/04 08:05:51;;;;;;;8.40;5.10;;;;;;;16.18;51.47;101907.59;5072740;28;20526;-60
2022/05/04 08:08:16;;;;;;;10.57;5.68;;;;;;;16.41;49.87;101904.66;5071520;28;20056;-61
2022/05/04 08:10:41;;;;;;;12.02;5.20;;;;;;;16.56;51.05;101907.69;5073376;28;20484;-60
2022/05/04 08:13:07;;;;;;;10.45;5.50;;;;;;;16.86;50.60;101905.72;5074029;28;20047;-60
2022/05/04 08:15:33;;;;;;;8.32;5.53;;;;;;;17.15;49.90;101909.88;5074378;28;20020;-61
2022/05/04 08:17:59;;;;;;;9.48;6.22;;;;;;;17.35;49.77;101909.41;5076428;28;20035;-60
2022/05/04 08:20:25;;;;;;;10.75;5.50;;;;;;;17.34;49.48;101907.66;5076242;28;20025;-60
2022/05/04 08:22:51;;;;;;;8.75;5.13;;;;;;;17.35;47.82;101902.44;5071996;28;20123;-60
2022/05/04 08:25:17;;;;;;;11.05;5.68;;;;;;;17.35;45.53;101901.56;5090257;28;20431;-60
2022/05/04 08:27:43;;;;;;;5.82;5.28;;;;;;;17.31;46.01;101899.72;5084726;28;20031;-60
2022/05/04 08:30:09;;;;;;;12.02;5.90;;;;;;;17.46;48.87;101897.44;5074726;28;20058;-61
2022/05/04 08:32:34;;;;;;;14.02;6.47;;;;;;;17.59;48.04;101900.28;5075732;28;20052;-61
2022/05/04 08:35:00;;;;;;;12.45;6.75;;;;;;;17.73;48.11;101911.94;5076321;28;20398;-61
2022/05/04 08:37:29;;;;;;;8.45;6.35;;;;;;;17.62;46.02;101900.34;5079371;28;20401;-61
2022/05/04 08:39:55;;;;;;;10.18;7.68;;;;;;;17.41;45.98;101899.06;5080195;28;20120;-61
2022/05/04 08:42:21;;;;;;;10.93;6.32;;;;;;;17.25;47.79;101900.50;5081013;28;20028;-61
2022/05/04 08:44:51;;;;;;;11.38;6.40;;;;;;;17.36;47.04;101895.47;5084681;28;20020;-61
2022/05/04 08:47:20;;;;;;;8.95;6.05;;;;;;;17.63;48.33;101896.84;5087519;28;20265;-60
2022/05/04 08:49:47;;;;;;;10.18;5.82;;;;;;;17.76;45.10;101904.13;5084700;28;20020;-61
2022/05/04 08:52:13;;;;;;;8.98;5.53;;;;;;;17.93;45.54;101895.69;5091640;28;20053;-61
2022/05/04 08:54:40;;;;;;;8.25;5.57;;;;;;;17.80;44.10;101898.91;5091464;28;20133;-60
2022/05/04 08:57:07;;;;;;;10.00;6.13;;;;;;;17.94;47.32;101896.53;5090791;28;20063;-61
2022/05/04 08:59:33;;;;;;;9.05;6.07;;;;;;;18.19;46.64;101895.28;5087514;28;20028;-61
2022/05/04 09:01:58;;;;;;;12.68;8.18;;;;;;;18.15;47.16;101901.31;5096378;28;20030;-59
2022/05/04 09:04:24;;;;;;;8.00;6.38;;;;;;;18.28;47.16;101896.28;5087008;28;20016;-61
2022/05/04 09:06:50;;;;;;;9.90;6.60;;;;;;;18.48;44.93;101899.22;5090549;28;20034;-61
2022/05/04 09:09:15;;;;;;;13.13;6.38;;;;;;;18.61;45.59;101900.31;5086520;28;20059;-61
2022/05/04 09:11:43;;;;;;;12.05;7.38;;;;;;;18.57;44.90;101901.13;5075843;28;20371;-61
2022/05/04 09:14:17;;;;;;;9.95;6.78;;;;;;;18.66;44.99;101893.38;5074676;28;20020;-61
2022/05/04 09:16:43;;;;;;;8.82;7.03;;;;;;;18.54;44.38;101895.81;5088040;28;20020;-61
2022/05/04 09:19:13;;;;;;;9.63;6.10;;;;;;;18.57;45.68;101888.88;5090266;28;20028;-61
2022/05/04 09:21:39;;;;;;;11.45;6.53;;;;;;;18.70;44.41;101889.97;5087191;28;20028;-59
2022/05/04 09:24:05;;;;;;;8.23;6.57;;;;;;;18.69;44.35;101888.19;5076163;28;20020;-60
2022/05/04 09:26:32;;;;;;;8.07;6.30;;;;;;;18.62;44.61;101886.31;5076766;28;20055;-61
2022/05/04 09:28:59;;;;;;;11.32;7.22;;;;;;;18.38;43.77;101881.59;5076852;28;20073;-61
2022/05/04 09:31:26;;;;;;;10.98;6.70;;;;;;;18.34;43.83;101881.53;5080932;28;20031;-59
2022/05/04 09:33:53;;;;;;;10.15;7.05;;;;;;;18.43;45.12;101882.53;5084634;28;20048;-61
2022/05/04 09:36:29;;;;;;;10.70;6.72;;;;;;;18.67;47.63;101889.03;5075984;28;20811;-61
2022/05/04 09:47:18;;;;;;;9.65;6.55;;;;;;;18.76;44.58;101878.66;5090357;28;20502;-61
2022/05/04 09:49:46;;;;;;;8.07;5.72;;;;;;;18.93;41.49;101885.88;5087370;28;20089;-61
2022/05/04 09:52:14;;;;;;;8.18;5.30;;;;;;;19.06;41.47;101876.44;5089578;28;20318;-60
2022/05/04 09:54:39;;;;;;;8.98;6.30;;;;;;;18.66;40.28;101882.00;5088657;28;20020;-61
2022/05/04 09:57:05;;;;;;;8.68;6.43;;;;;;;18.55;42.84;101879.22;5088371;28;20047;-61
2022/05/04 09:59:33;;;;;;;7.95;6.65;;;;;;;18.69;44.06;101871.56;5087973;28;20019;-61
2022/05/04 10:02:00;;;;;;;10.30;7.80;;;;;;;18.18;42.10;101869.91;5088625;28;20031;-61
2022/05/04 10:04:26;;;;;;;7.90;6.15;;;;;;;18.30;45.12;101863.97;5088943;28;20020;-60
2022/05/04 10:06:53;;;;;;;9.95;7.00;;;;;;;18.56;44.49;101866.13;5088859;28;20034;-61
2022/05/04 10:09:20;;;;;;;9.75;6.90;;;;;;;18.50;42.60;101865.13;5088723;28;20031;-61
2022/05/04 10:11:46;;;;;;;11.38;7.47;;;;;;;18.65;45.58;101873.25;5087320;28;20533;-61
2022/05/04 10:14:15;;;;;;;11.45;7.70;;;;;;;18.81;45.24;101863.88;5087042;28;20024;-60
2022/05/04 10:17:00;;;;;;;9.55;6.20;;;;;;;19.02;45.95;101869.34;5087098;28;20103;-61
2022/05/04 10:19:30;;;;;;;9.88;6.80;;;;;;;18.91;42.57;101862.22;5086642;28;20521;-61
2022/05/04 10:21:58;;;;;;;9.63;7.07;;;;;;;18.90;43.32;101859.59;5086249;28;20020;-62
2022/05/04 10:24:29;;;;;;;9.93;7.25;;;;;;;18.65;43.37;101865.38;5086737;28;20422;-60
2022/05/04 10:27:02;;;;;;;8.47;6.33;;;;;;;18.47;42.93;101864.22;5087620;28;20494;-61
2022/05/04 10:32:35;;;;;;;8.52;6.78;;;;;;;18.47;44.50;101864.22;5089547;28;20129;-62
2022/05/04 10:35:20;;;;;;;7.65;6.70;;;;;;;18.64;45.30;101852.22;5076187;28;20149;-62
2022/05/04 10:37:57;;;;;;;9.55;6.57;;;;;;;18.75;41.29;101858.50;5108944;28;20102;-61
2022/05/04 10:40:29;;;;;;;10.35;6.47;;;;;;;18.91;42.55;101851.72;5108842;28;20459;-61
2022/05/04 10:42:57;;;;;;;7.85;5.78;;;;;;;19.11;42.22;101845.84;5108926;28;20027;-61
2022/05/04 10:45:33;;;;;;;9.45;7.00;;;;;;;19.11;42.93;101853.72;5101001;28;20115;-60
2022/05/04 10:48:15;;;;;;;11.43;6.82;;;;;;;19.19;44.86;101857.34;5089123;28;20502;-62
2022/05/04 10:50:50;;;;;;;8.55;6.90;;;;;;;19.36;45.41;101859.31;5089055;28;20024;-62
2022/05/04 10:53:27;;;;;;;10.35;7.65;;;;;;;19.31;42.24;101861.00;5088988;28;20024;-62
2022/05/04 10:55:59;;;;;;;9.27;7.28;;;;;;;19.28;43.09;101850.47;5082970;28;20360;-62
2022/05/04 10:58:55;;;;;;;21.58;8.43;;;;;;;18.96;42.88;101854.41;5088299;28;20078;-62
2022/05/04 11:01:25;;;;;;;9.23;7.90;;;;;;;18.64;42.42;101842.59;5089357;28;20028;-62
2022/05/04 11:03:56;;;;;;;9.27;7.45;;;;;;;18.46;42.57;101848.47;5089462;28;20032;-62
2022/05/04 11:06:27;;;;;;;8.48;6.75;;;;;;;18.65;43.65;101839.16;5089104;28;20039;-62
2022/05/04 11:08:56;;;;;;;10.85;7.85;;;;;;;18.88;44.00;101840.31;5088977;28;20028;-62
2022/05/04 11:11:22;;;;;;;8.75;6.97;;;;;;;19.05;43.68;101837.91;5088257;28;20393;-61
2022/05/04 11:13:48;;;;;;;11.93;8.30;;;;;;;19.05;46.31;101837.91;5088704;28;20447;-61
2022/05/04 11:16:15;;;;;;;12.25;9.52;;;;;;;18.99;41.04;101843.06;5088691;28;20024;-61
2022/05/04 11:18:40;;;;;;;9.13;8.23;;;;;;;18.92;43.65;101842.13;5088835;28;20028;-61
2022/05/04 11:21:13;;;;;;;9.93;7.85;;;;;;;19.13;44.09;101831.03;5088714;28;20023;-61
2022/05/04 11:23:39;;;;;;;10.88;6.88;;;;;;;19.20;42.92;101827.59;5088755;28;20126;-60
2022/05/04 11:26:05;;;;;;;10.15;7.38;;;;;;;19.38;44.02;101826.03;5088206;28;20024;-62
2022/05/04 11:28:30;;;;;;;10.90;6.85;;;;;;;19.52;42.16;101822.66;5088745;28;20059;-62
2022/05/04 11:30:56;;;;;;;10.00;7.00;;;;;;;19.72;43.46;101824.59;5088622;28;20074;-61
2022/05/04 11:33:21;;;;;;;11.90;7.65;;;;;;;19.84;43.37;101829.97;5088497;28;20048;-62
2022/05/04 11:35:57;;;;;;;11.65;7.78;;;;;;;19.89;42.18;101828.31;5087994;28;20047;-62
2022/05/04 11:38:23;;;;;;;10.38;7.88;;;;;;;19.94;41.61;101816.91;5088506;28;20028;-62
2022/05/04 11:40:50;;;;;;;12.55;7.30;;;;;;;19.95;41.62;101822.19;5088355;28;20042;-61
2022/05/04 11:43:33;;;;;;;11.20;7.85;;;;;;;19.70;40.18;101818.47;5088243;28;20114;-62
2022/05/04 11:46:06;;;;;;;9.75;7.38;;;;;;;19.72;40.92;101820.25;5088546;28;20024;-60
2022/05/04 11:48:32;;;;;;;7.65;6.60;;;;;;;19.74;40.11;101813.25;5082470;28;20024;-62
2022/05/04 11:50:58;;;;;;;10.80;7.45;;;;;;;19.84;42.28;101814.19;5088212;28;20379;-62
2022/05/04 11:53:23;;;;;;;11.52;7.47;;;;;;;19.88;41.54;101804.59;5086884;28;20020;-62
2022/05/04 11:55:48;;;;;;;9.25;7.40;;;;;;;19.90;42.89;101811.63;5088264;28;20096;-62
2022/05/04 11:58:14;;;;;;;10.55;8.18;;;;;;;19.83;40.39;101796.69;5087795;28;20028;-62